Time;durP1;ratioP1;P1;durP2;ratioP2;P2;SDS_P1;SDS_P2;PMS_P1;PMS_P2;Temp;Humidity;BMP_temperature;BMP_pressure;BME280_temperature;BME280_humidity;BME280_pressure;Samples;Min_cycle;Max_cycle;Signal;HPM_P1;HPM_P2
2022/03/23 00:00:43;;;;;;;22.00;13.75;;;6.10;91.70;;;;;;5001834;28;20109;-81
2022/03/23 00:03:09;;;;;;;22.20;13.32;;;6.10;91.80;;;;;;4976298;28;20473;-81
2022/03/23 00:05:38;;;;;;;25.02;13.90;;;6.10;92.20;;;;;;4971998;28;20044;-81
2022/03/23 00:08:03;;;;;;;23.23;14.35;;;6.00;92.40;;;;;;4991557;28;20493;-81
2022/03/23 00:10:30;;;;;;;24.90;14.18;;;5.90;93.20;;;;;;4968033;28;20048;-81
2022/03/23 00:12:57;;;;;;;23.45;14.65;;;5.80;94.50;;;;;;4989741;28;20113;-80
2022/03/23 00:15:23;;;;;;;27.85;13.75;;;5.90;93.40;;;;;;4970986;28;20037;-80
2022/03/23 00:17:48;;;;;;;23.45;14.95;;;5.90;92.90;;;;;;4990794;28;20029;-80
2022/03/23 00:20:15;;;;;;;21.52;13.45;;;5.80;94.90;;;;;;4981754;28;20030;-80
2022/03/23 00:22:40;;;;;;;23.08;13.50;;;5.70;96.60;;;;;;4985802;28;20029;-79
2022/03/23 00:25:07;;;;;;;24.38;13.93;;;5.50;98.00;;;;;;5007097;28;20033;-80
2022/03/23 00:27:33;;;;;;;24.33;15.05;;;5.40;98.90;;;;;;4968783;28;20029;-80
2022/03/23 00:29:58;;;;;;;23.83;14.65;;;5.50;97.70;;;;;;4986447;28;20025;-80
2022/03/23 00:32:24;;;;;;;23.15;13.88;;;5.80;93.20;;;;;;4970952;28;20393;-79
2022/03/23 00:34:49;;;;;;;25.15;13.60;;;5.70;95.50;;;;;;4972089;28;20041;-81
2022/03/23 00:37:15;;;;;;;22.30;14.32;;;5.60;95.80;;;;;;4985517;28;20022;-79
2022/03/23 00:39:40;;;;;;;23.98;12.38;;;5.40;98.40;;;;;;4983062;28;20398;-81
2022/03/23 00:42:06;;;;;;;25.50;13.93;;;5.30;95.20;;;;;;4977065;28;20029;-80
2022/03/23 00:44:31;;;;;;;21.90;13.48;;;5.50;93.90;;;;;;4974610;28;20108;-80
2022/03/23 00:46:57;;;;;;;29.05;14.63;;;5.70;92.20;;;;;;4982762;28;20509;-80
2022/03/23 00:49:23;;;;;;;26.58;14.27;;;5.60;95.50;;;;;;4971841;28;20033;-80
2022/03/23 00:51:53;;;;;;;29.20;14.75;;;5.40;96.30;;;;;;4988896;28;20034;-80
2022/03/23 00:54:19;;;;;;;23.17;14.85;;;5.30;97.60;;;;;;4973233;28;20029;-81
2022/03/23 00:56:45;;;;;;;26.27;14.70;;;5.10;99.90;;;;;;4973848;28;20165;-80
2022/03/23 00:59:13;;;;;;;25.98;15.18;;;5.10;98.10;;;;;;4977035;28;20124;-80
2022/03/23 01:01:39;;;;;;;27.13;15.02;;;5.30;97.80;;;;;;4982544;28;20304;-80
2022/03/23 01:04:05;;;;;;;21.65;11.63;;;5.20;97.00;;;;;;4976916;28;20040;-80
2022/03/23 01:06:31;;;;;;;24.20;14.52;;;5.40;95.40;;;;;;4986503;28;20033;-80
2022/03/23 01:08:57;;;;;;;22.45;14.55;;;5.60;95.40;;;;;;4992873;28;20041;-80
2022/03/23 01:11:22;;;;;;;27.17;15.05;;;5.20;98.90;;;;;;4989116;28;20033;-81
2022/03/23 01:13:48;;;;;;;23.27;13.38;;;4.90;99.90;;;;;;4969674;28;20093;-80
2022/03/23 01:16:13;;;;;;;27.02;14.90;;;5.00;97.70;;;;;;4985807;28;20037;-80
2022/03/23 01:18:39;;;;;;;27.35;15.50;;;5.20;97.30;;;;;;4970855;28;20029;-80
2022/03/23 01:21:05;;;;;;;29.42;16.77;;;5.00;99.60;;;;;;5002725;28;20037;-81
2022/03/23 01:23:30;;;;;;;44.33;25.08;;;4.60;99.90;;;;;;4991222;28;20026;-79
2022/03/23 01:25:56;;;;;;;35.40;20.55;;;4.50;99.90;;;;;;4989695;28;20026;-80
2022/03/23 01:28:21;;;;;;;30.25;17.13;;;4.60;99.90;;;;;;4982611;28;20134;-81
2022/03/23 01:30:47;;;;;;;29.13;17.38;;;4.60;99.90;;;;;;4974278;28;20112;-79
2022/03/23 01:33:12;;;;;;;27.10;16.85;;;4.70;99.90;;;;;;4986466;28;20100;-80
2022/03/23 01:35:38;;;;;;;24.95;14.82;;;4.50;99.90;;;;;;4974490;28;20025;-80
2022/03/23 01:38:04;;;;;;;27.65;15.90;;;4.50;99.90;;;;;;4991575;28;20034;-80
2022/03/23 01:40:29;;;;;;;25.92;15.50;;;4.60;99.90;;;;;;4989711;28;20054;-80
2022/03/23 01:42:55;;;;;;;26.50;15.38;;;4.60;99.90;;;;;;4997388;28;20037;-81
2022/03/23 01:45:20;;;;;;;28.92;15.10;;;4.40;99.90;;;;;;4976535;28;20056;-80
2022/03/23 01:47:46;;;;;;;26.23;14.20;;;4.50;99.90;;;;;;4979671;28;20045;-80
2022/03/23 01:50:11;;;;;;;32.72;15.23;;;4.30;99.90;;;;;;4987849;28;20028;-80
2022/03/23 01:52:38;;;;;;;26.45;15.95;;;4.20;99.90;;;;;;4994586;28;20117;-80
2022/03/23 01:55:13;;;;;;;25.80;14.75;;;4.20;99.90;;;;;;4999374;28;20095;-80
2022/03/23 01:57:39;;;;;;;23.70;14.32;;;4.40;99.90;;;;;;4994358;28;20046;-80
2022/03/23 02:00:06;;;;;;;26.13;15.68;;;4.60;99.90;;;;;;4994638;28;20029;-81
2022/03/23 02:02:31;;;;;;;22.52;14.60;;;4.60;99.90;;;;;;4992125;28;20065;-81
2022/03/23 02:04:57;;;;;;;23.30;14.27;;;4.40;99.90;;;;;;5007156;28;20540;-80
2022/03/23 02:07:24;;;;;;;27.08;14.82;;;4.50;99.90;;;;;;4994011;28;20021;-81
2022/03/23 02:09:49;;;;;;;30.55;15.70;;;4.30;99.90;;;;;;4989289;28;20512;-81
2022/03/23 02:12:15;;;;;;;29.30;16.30;;;4.20;99.90;;;;;;4975491;28;20030;-82
2022/03/23 02:14:41;;;;;;;26.08;15.30;;;4.10;99.90;;;;;;4975359;28;20116;-81
2022/03/23 02:17:06;;;;;;;27.33;15.82;;;3.80;99.90;;;;;;5007303;28;20022;-81
2022/03/23 02:19:32;;;;;;;22.88;14.48;;;3.70;99.90;;;;;;4971651;28;20026;-80
2022/03/23 02:21:58;;;;;;;23.90;13.57;;;3.90;99.90;;;;;;4972227;28;20037;-80
2022/03/23 02:24:25;;;;;;;21.65;12.88;;;4.20;99.90;;;;;;4971348;28;20030;-80
2022/03/23 02:26:51;;;;;;;20.92;12.52;;;4.30;99.90;;;;;;4992714;28;20081;-81
2022/03/23 02:29:18;;;;;;;18.17;11.82;;;4.40;99.90;;;;;;4973789;28;20041;-82
2022/03/23 02:31:45;;;;;;;21.05;12.88;;;4.20;99.90;;;;;;4978285;28;20048;-81
2022/03/23 02:34:10;;;;;;;23.10;13.48;;;4.30;99.90;;;;;;4974917;28;20516;-81
2022/03/23 02:36:36;;;;;;;21.02;13.43;;;4.20;99.90;;;;;;5007656;28;20030;-81
2022/03/23 02:39:02;;;;;;;20.25;13.40;;;4.20;99.90;;;;;;4991313;28;20033;-81
2022/03/23 02:41:28;;;;;;;25.38;14.65;;;4.30;99.90;;;;;;4987823;28;20037;-81
2022/03/23 02:43:53;;;;;;;23.48;14.30;;;4.00;99.90;;;;;;4977109;28;20048;-81
2022/03/23 02:46:19;;;;;;;22.50;14.00;;;3.80;99.90;;;;;;4974179;28;20060;-83
2022/03/23 02:48:47;;;;;;;22.50;13.90;;;3.70;99.90;;;;;;4976811;28;20614;-81
2022/03/23 02:51:12;;;;;;;19.58;12.25;;;3.90;99.90;;;;;;4972510;28;20033;-82
2022/03/23 03:02:20;;;;;;;25.27;14.10;;;3.30;99.90;;;;;;5007661;28;20043;-82
2022/03/23 03:04:46;;;;;;;;;;;3.10;99.90;;;;;;5005528;28;20038;-83
2022/03/23 03:07:12;;;;;;;27.27;13.63;;;3.20;99.90;;;;;;4988204;28;19917;-83
2022/03/23 03:09:39;;;;;;;23.05;14.02;;;3.10;99.90;;;;;;5002528;28;20041;-82
2022/03/23 03:12:04;;;;;;;28.08;15.13;;;3.10;99.90;;;;;;5002937;28;20045;-84
2022/03/23 03:14:31;;;;;;;25.42;14.55;;;3.00;99.90;;;;;;4987287;28;20037;-84
2022/03/23 03:16:56;;;;;;;26.23;15.23;;;3.10;99.90;;;;;;4987728;28;20508;-84
2022/03/23 03:19:22;;;;;;;28.58;15.35;;;3.30;99.90;;;;;;4988775;28;20029;-84
2022/03/23 03:21:48;;;;;;;26.67;15.50;;;3.20;99.90;;;;;;4972277;28;20034;-84
2022/03/23 03:24:13;;;;;;;21.17;12.88;;;3.00;99.90;;;;;;4970198;28;20112;-84
2022/03/23 03:26:39;;;;;;;25.02;14.35;;;3.20;99.90;;;;;;4990136;28;20068;-84
2022/03/23 03:29:07;;;;;;;25.38;14.63;;;3.40;99.90;;;;;;4991310;28;20033;-84
2022/03/23 03:31:33;;;;;;;26.00;15.55;;;3.20;99.90;;;;;;4989550;28;20058;-84
2022/03/23 03:33:58;;;;;;;25.65;15.20;;;3.20;99.90;;;;;;4989288;28;20564;-84
2022/03/23 03:36:24;;;;;;;30.35;16.30;;;3.00;99.90;;;;;;4974597;28;20473;-84
2022/03/23 03:38:49;;;;;;;23.85;15.05;;;2.70;99.90;;;;;;4977799;28;20100;-84
2022/03/23 03:41:16;;;;;;;27.58;16.77;;;2.70;99.90;;;;;;4974379;28;20037;-84
2022/03/23 03:43:42;;;;;;;28.02;16.50;;;2.60;99.90;;;;;;4972041;28;20498;-82
2022/03/23 03:46:08;;;;;;;29.10;16.05;;;2.50;99.90;;;;;;4989272;28;20052;-82
2022/03/23 03:48:34;;;;;;;24.35;16.27;;;2.50;99.90;;;;;;4975775;28;20405;-82
2022/03/23 03:51:00;;;;;;;26.65;16.63;;;2.50;99.90;;;;;;4968106;28;20033;-82
2022/03/23 03:53:26;;;;;;;25.80;16.25;;;2.50;99.90;;;;;;4973544;28;20068;-82
2022/03/23 03:55:51;;;;;;;31.50;17.00;;;2.70;99.90;;;;;;4971605;28;20485;-83
2022/03/23 03:58:17;;;;;;;31.27;17.30;;;2.70;99.90;;;;;;4986471;28;20038;-82
2022/03/23 04:00:43;;;;;;;27.05;16.77;;;2.80;99.90;;;;;;4967958;28;20042;-82
2022/03/23 04:03:08;;;;;;;28.15;17.13;;;2.80;99.90;;;;;;4985232;28;20406;-82
2022/03/23 04:05:34;;;;;;;28.30;15.80;;;2.70;99.90;;;;;;4984038;28;20038;-81
2022/03/23 04:08:00;;;;;;;29.83;15.73;;;2.50;99.90;;;;;;5007689;28;20201;-81
2022/03/23 04:10:25;;;;;;;25.38;16.40;;;2.40;99.90;;;;;;4989243;28;20102;-82
2022/03/23 04:12:51;;;;;;;26.52;16.05;;;2.50;99.90;;;;;;4964434;28;20040;-82
2022/03/23 04:15:19;;;;;;;26.08;15.82;;;2.50;99.90;;;;;;4971343;28;20445;-82
2022/03/23 04:17:45;;;;;;;26.35;16.13;;;2.40;99.90;;;;;;4973579;28;20490;-81
2022/03/23 04:20:11;;;;;;;29.52;16.50;;;2.40;99.90;;;;;;4987548;28;20029;-82
2022/03/23 04:22:38;;;;;;;29.30;16.33;;;2.30;99.90;;;;;;5004490;28;20029;-81
2022/03/23 04:25:05;;;;;;;26.90;15.55;;;2.30;99.90;;;;;;4992345;28;20056;-82
2022/03/23 04:27:31;;;;;;;31.30;17.58;;;2.20;99.90;;;;;;4991250;28;20258;-81
2022/03/23 04:29:56;;;;;;;28.35;16.83;;;2.20;99.90;;;;;;5004314;28;20378;-82
2022/03/23 04:32:22;;;;;;;24.35;15.93;;;2.20;99.90;;;;;;4990766;28;20025;-82
2022/03/23 04:34:48;;;;;;;27.52;15.82;;;2.20;99.90;;;;;;4974539;28;20032;-82
2022/03/23 04:37:13;;;;;;;25.17;14.73;;;2.20;99.90;;;;;;4979103;28;20183;-82
2022/03/23 04:39:39;;;;;;;25.13;15.68;;;2.20;99.90;;;;;;4984662;28;20034;-81
2022/03/23 04:42:05;;;;;;;31.45;17.90;;;2.30;99.90;;;;;;4986876;28;20032;-81
2022/03/23 04:44:30;;;;;;;27.00;15.90;;;2.30;99.90;;;;;;5001782;28;20041;-81
2022/03/23 04:46:56;;;;;;;26.13;16.23;;;2.20;99.90;;;;;;5005584;28;20029;-81
2022/03/23 04:49:21;;;;;;;29.52;16.38;;;2.20;99.90;;;;;;4965147;28;20814;-82
2022/03/23 04:51:47;;;;;;;25.65;16.67;;;2.10;99.90;;;;;;5007265;28;20041;-81
2022/03/23 04:54:12;;;;;;;24.02;15.95;;;2.00;99.90;;;;;;4975814;28;20052;-81
2022/03/23 04:56:38;;;;;;;24.83;16.58;;;2.00;99.90;;;;;;4983381;28;20038;-82
2022/03/23 04:59:04;;;;;;;27.02;16.60;;;2.10;99.90;;;;;;4976729;28;20033;-81
2022/03/23 05:01:29;;;;;;;30.45;16.40;;;2.00;99.90;;;;;;4990184;28;20034;-83
2022/03/23 05:03:57;;;;;;;25.75;15.70;;;1.90;99.90;;;;;;4973020;28;20520;-82
2022/03/23 05:06:23;;;;;;;31.48;17.35;;;1.90;99.90;;;;;;4972048;28;20485;-82
2022/03/23 05:08:49;;;;;;;27.70;16.08;;;1.80;99.90;;;;;;4973978;28;20030;-82
2022/03/23 05:11:14;;;;;;;30.60;16.92;;;1.90;99.90;;;;;;4986976;28;20105;-82
2022/03/23 05:13:40;;;;;;;23.13;14.15;;;2.00;99.90;;;;;;4970058;28;20644;-82
2022/03/23 05:16:07;;;;;;;26.92;15.57;;;2.10;99.90;;;;;;4990722;28;20091;-83
2022/03/23 05:18:33;;;;;;;29.83;17.05;;;2.10;99.90;;;;;;5009366;28;20131;-81
2022/03/23 05:20:58;;;;;;;27.40;15.32;;;2.00;99.90;;;;;;4994434;28;20476;-81
2022/03/23 05:23:24;;;;;;;29.30;15.85;;;1.90;99.90;;;;;;4996282;28;20401;-82
2022/03/23 05:25:50;;;;;;;32.60;17.55;;;1.90;99.90;;;;;;4988962;28;20034;-82
2022/03/23 05:28:18;;;;;;;30.48;17.98;;;1.90;99.90;;;;;;4975788;28;20498;-82
2022/03/23 05:30:43;;;;;;;33.88;17.10;;;1.90;99.90;;;;;;4989690;28;20443;-81
2022/03/23 05:33:09;;;;;;;26.88;15.48;;;1.90;99.90;;;;;;4975977;28;20167;-81
2022/03/23 05:35:34;;;;;;;27.92;15.88;;;1.90;99.90;;;;;;4990705;28;20102;-82
2022/03/23 05:38:03;;;;;;;32.83;16.52;;;1.80;99.90;;;;;;5009026;28;20081;-81
2022/03/23 05:40:28;;;;;;;31.17;17.17;;;1.80;99.90;;;;;;4972298;28;20040;-81
2022/03/23 05:42:54;;;;;;;30.33;18.15;;;1.80;99.90;;;;;;5010797;28;20033;-81
2022/03/23 05:45:19;;;;;;;32.42;22.60;;;1.80;99.90;;;;;;4989882;28;20034;-81
2022/03/23 05:47:45;;;;;;;27.58;17.63;;;1.80;99.90;;;;;;4972900;28;20037;-81
2022/03/23 05:50:11;;;;;;;28.65;16.60;;;1.80;99.90;;;;;;4989536;28;20034;-83
2022/03/23 05:52:37;;;;;;;26.15;15.98;;;1.60;99.90;;;;;;4973034;28;20501;-82
2022/03/23 05:55:05;;;;;;;30.45;16.30;;;1.70;99.90;;;;;;4970437;28;20029;-82
2022/03/23 05:57:31;;;;;;;27.27;16.05;;;1.80;99.90;;;;;;5007190;28;20033;-83
2022/03/23 05:59:56;;;;;;;23.60;15.65;;;1.90;99.90;;;;;;4991663;28;20033;-81
2022/03/23 06:02:23;;;;;;;29.13;15.45;;;1.90;99.90;;;;;;4990969;28;20033;-81
2022/03/23 06:04:48;;;;;;;20.67;12.82;;;1.90;99.90;;;;;;4989205;28;20034;-81
2022/03/23 06:07:14;;;;;;;24.38;14.43;;;2.00;99.90;;;;;;4995638;28;20083;-82
2022/03/23 06:09:39;;;;;;;22.70;14.35;;;2.20;99.90;;;;;;4984845;28;20072;-83
2022/03/23 06:12:11;;;;;;;21.83;12.55;;;2.60;99.90;;;;;;4975211;28;20397;-82
2022/03/23 06:14:37;;;;;;;26.92;14.82;;;2.60;99.90;;;;;;4989910;28;20050;-82
2022/03/23 06:17:03;;;;;;;27.00;14.95;;;2.60;99.90;;;;;;4974928;28;20033;-81
2022/03/23 06:19:28;;;;;;;26.90;15.13;;;2.40;99.90;;;;;;4995678;28;20099;-81
2022/03/23 06:21:54;;;;;;;25.85;13.18;;;2.30;99.90;;;;;;4974250;28;20557;-82
2022/03/23 06:24:19;;;;;;;17.90;11.27;;;2.40;99.90;;;;;;4977295;28;20093;-81
2022/03/23 06:26:45;;;;;;;23.90;14.35;;;2.80;99.90;;;;;;4987596;28;20034;-81
2022/03/23 06:29:10;;;;;;;26.98;13.32;;;2.70;99.90;;;;;;4975073;28;20113;-81
2022/03/23 06:31:36;;;;;;;24.38;14.80;;;2.50;99.90;;;;;;4974143;28;20026;-83
2022/03/23 06:34:04;;;;;;;29.70;16.33;;;2.60;99.90;;;;;;4993158;28;20125;-83
2022/03/23 06:36:29;;;;;;;27.58;16.38;;;2.40;99.90;;;;;;4995379;28;20078;-83
2022/03/23 06:38:55;;;;;;;20.38;11.52;;;2.50;99.90;;;;;;4974645;28;20065;-82
2022/03/23 06:41:20;;;;;;;21.42;13.18;;;2.70;99.90;;;;;;4989620;28;20037;-82
2022/03/23 06:43:46;;;;;;;30.42;16.08;;;3.20;99.90;;;;;;4990879;28;20038;-83
2022/03/23 06:46:12;;;;;;;25.85;14.65;;;3.00;99.90;;;;;;4984071;28;20029;-83
2022/03/23 06:48:38;;;;;;;21.35;12.43;;;3.00;99.90;;;;;;4974373;28;20034;-83
2022/03/23 06:51:04;;;;;;;23.98;12.75;;;3.30;99.90;;;;;;4970499;28;20389;-83
2022/03/23 06:53:29;;;;;;;27.00;15.18;;;3.50;99.90;;;;;;4986236;28;20489;-83
2022/03/23 06:55:55;;;;;;;25.55;14.40;;;3.60;99.90;;;;;;4976302;28;20032;-83
2022/03/23 06:58:21;;;;;;;22.42;14.70;;;3.60;99.90;;;;;;4987511;28;20052;-83
2022/03/23 07:00:46;;;;;;;22.17;14.25;;;3.60;99.90;;;;;;4989888;28;20524;-83
2022/03/23 07:03:12;;;;;;;25.33;14.43;;;3.60;99.90;;;;;;4974485;28;20030;-82
2022/03/23 07:05:37;;;;;;;27.88;16.55;;;3.60;99.90;;;;;;4974351;28;20042;-83
2022/03/23 07:10:47;;;;;;;34.15;15.55;;;4.10;99.90;;;;;;4971208;28;20709;-84
2022/03/23 07:13:16;;;;;;;26.17;15.52;;;4.40;99.90;;;;;;4974474;28;20894;-83
2022/03/23 07:15:44;;;;;;;21.95;13.98;;;4.40;99.90;;;;;;4992307;28;20053;-83
2022/03/23 07:18:10;;;;;;;15.82;11.20;;;4.50;99.90;;;;;;4971879;28;20022;-82
2022/03/23 07:20:35;;;;;;;26.55;16.00;;;4.80;99.90;;;;;;4973326;28;20048;-84
2022/03/23 07:23:01;;;;;;;29.88;16.08;;;4.70;99.90;;;;;;5004344;28;20446;-83
2022/03/23 07:25:26;;;;;;;25.02;14.27;;;4.80;99.90;;;;;;4975034;28;20091;-83
2022/03/23 07:27:52;;;;;;;27.92;15.48;;;5.00;99.90;;;;;;4992093;28;20060;-82
2022/03/23 07:30:18;;;;;;;28.98;16.38;;;5.10;99.90;;;;;;4987450;28;20056;-82
2022/03/23 07:32:43;;;;;;;23.85;14.80;;;5.40;99.90;;;;;;4973473;28;20088;-82
2022/03/23 07:35:09;;;;;;;29.25;13.88;;;5.80;99.90;;;;;;4974955;28;20041;-82
2022/03/23 07:37:34;;;;;;;15.40;10.80;;;6.10;99.90;;;;;;4975390;28;20117;-83
2022/03/23 07:40:00;;;;;;;17.80;12.10;;;6.30;99.90;;;;;;4989230;28;20029;-83
2022/03/23 07:42:25;;;;;;;20.13;13.43;;;6.50;99.90;;;;;;4970074;28;20033;-81
2022/03/23 07:44:51;;;;;;;20.23;11.82;;;6.70;99.90;;;;;;4976655;28;20402;-81
2022/03/23 07:47:16;;;;;;;22.33;13.95;;;7.00;99.90;;;;;;4989028;28;20501;-81
2022/03/23 07:49:42;;;;;;;22.95;13.38;;;7.00;99.90;;;;;;4968978;28;20052;-82
2022/03/23 07:52:09;;;;;;;25.92;13.73;;;7.50;99.90;;;;;;4976727;28;20378;-81
2022/03/23 07:54:35;;;;;;;30.83;16.17;;;7.40;99.90;;;;;;5004023;28;20044;-81
2022/03/23 07:57:00;;;;;;;24.15;14.02;;;7.40;99.90;;;;;;4977932;28;20204;-82
2022/03/23 07:59:28;;;;;;;21.02;14.40;;;7.50;99.90;;;;;;4977770;28;20026;-82
2022/03/23 08:02:01;;;;;;;26.00;14.15;;;7.60;99.90;;;;;;4976301;28;20037;-81
2022/03/23 08:04:26;;;;;;;25.30;14.20;;;7.90;99.90;;;;;;4982490;28;20033;-81
2022/03/23 08:06:53;;;;;;;22.80;14.55;;;8.10;99.90;;;;;;4988138;28;20143;-81
2022/03/23 08:09:19;;;;;;;24.27;14.18;;;8.30;99.90;;;;;;4972019;28;20033;-80
2022/03/23 08:11:44;;;;;;;20.38;14.70;;;8.50;99.90;;;;;;4984509;28;20061;-80
2022/03/23 08:14:10;;;;;;;21.27;12.07;;;8.50;99.90;;;;;;4994198;28;20128;-81
2022/03/23 08:16:36;;;;;;;24.98;15.23;;;8.50;99.90;;;;;;5004030;28;20060;-81
2022/03/23 08:19:02;;;;;;;23.20;13.68;;;8.70;99.90;;;;;;4993379;28;20033;-82
2022/03/23 08:21:28;;;;;;;26.65;14.60;;;9.40;99.90;;;;;;4986483;28;20038;-81
2022/03/23 08:23:53;;;;;;;23.67;14.70;;;9.30;99.90;;;;;;4982564;28;20405;-83
2022/03/23 08:26:19;;;;;;;19.73;13.13;;;9.30;99.90;;;;;;4986693;28;20378;-82
2022/03/23 08:28:45;;;;;;;27.17;15.38;;;9.70;99.90;;;;;;4993030;28;20495;-82
2022/03/23 08:31:11;;;;;;;22.80;15.38;;;9.70;99.60;;;;;;4991587;28;20171;-81
2022/03/23 08:33:37;;;;;;;30.50;15.82;;;9.50;99.90;;;;;;4973225;28;20120;-82
2022/03/23 08:36:04;;;;;;;15.85;10.52;;;10.10;99.90;;;;;;4992208;28;20034;-82
2022/03/23 08:38:29;;;;;;;16.25;10.13;;;10.40;99.90;;;;;;4997194;28;20036;-82
2022/03/23 08:40:55;;;;;;;13.30;9.57;;;10.70;98.40;;;;;;5000078;28;20034;-80
2022/03/23 08:43:21;;;;;;;14.23;9.25;;;11.00;97.60;;;;;;5000172;28;20120;-82
2022/03/23 08:45:47;;;;;;;14.82;9.63;;;11.40;97.40;;;;;;4979858;28;20038;-82
2022/03/23 08:48:13;;;;;;;13.13;9.30;;;11.60;95.70;;;;;;4977642;28;20029;-82
2022/03/23 08:50:40;;;;;;;14.70;9.75;;;11.70;94.40;;;;;;4987462;28;20037;-81
2022/03/23 08:53:05;;;;;;;20.38;11.07;;;12.00;91.90;;;;;;4972977;28;20036;-82
2022/03/23 08:55:31;;;;;;;25.25;13.80;;;12.10;91.30;;;;;;4973382;28;20029;-82
2022/03/23 08:57:57;;;;;;;15.32;10.70;;;12.00;85.30;;;;;;5008173;28;20037;-80
2022/03/23 09:00:22;;;;;;;23.08;14.18;;;12.30;90.60;;;;;;4969304;28;20120;-81
2022/03/23 09:02:48;;;;;;;17.88;11.10;;;12.30;77.80;;;;;;4970594;28;20060;-81
2022/03/23 09:05:14;;;;;;;16.23;9.95;;;12.60;89.30;;;;;;4976896;28;20052;-81
2022/03/23 09:07:43;;;;;;;23.50;14.57;;;13.10;86.60;;;;;;4985631;28;20040;-81
2022/03/23 09:10:10;;;;;;;16.92;9.65;;;12.70;89.20;;;;;;4969009;28;20079;-81
2022/03/23 09:12:36;;;;;;;16.20;11.27;;;13.20;84.50;;;;;;4987998;28;20652;-82
2022/03/23 09:15:03;;;;;;;20.15;10.98;;;13.50;82.60;;;;;;4992436;28;20489;-80
2022/03/23 09:17:28;;;;;;;16.25;9.75;;;13.90;77.60;;;;;;4987686;28;20030;-80
2022/03/23 09:19:55;;;;;;;16.25;9.73;;;14.10;74.30;;;;;;4981980;28;20029;-80
2022/03/23 09:22:21;;;;;;;25.60;14.13;;;14.00;72.30;;;;;;4973733;28;20030;-80
2022/03/23 09:24:49;;;;;;;20.17;13.63;;;14.10;64.90;;;;;;4973639;28;20026;-79
2022/03/23 09:27:14;;;;;;;23.95;15.20;;;14.00;76.70;;;;;;4984942;28;20049;-79
2022/03/23 09:29:40;;;;;;;13.23;8.90;;;14.10;73.20;;;;;;4992923;28;20572;-79
2022/03/23 09:32:10;;;;;;;22.58;14.00;;;14.00;74.60;;;;;;4983167;28;20053;-78
2022/03/23 09:34:36;;;;;;;25.10;14.05;;;13.90;70.10;;;;;;4992044;28;20116;-78
2022/03/23 09:39:49;;;;;;;26.83;15.70;;;14.30;62.80;;;;;;4993521;28;20064;-80
2022/03/23 09:42:18;;;;;;;25.58;15.05;;;13.80;58.30;;;;;;4972135;28;20033;-79
2022/03/23 09:44:47;;;;;;;17.92;11.68;;;13.60;59.80;;;;;;4989006;28;20111;-79
2022/03/23 09:47:13;;;;;;;20.80;13.15;;;14.00;74.50;;;;;;4975615;28;20116;-78
2022/03/23 09:49:38;;;;;;;21.75;13.57;;;15.00;67.40;;;;;;4978487;28;20038;-77
2022/03/23 09:52:05;;;;;;;16.67;11.10;;;16.10;65.80;;;;;;4985381;28;20033;-78
2022/03/23 09:54:30;;;;;;;26.33;15.07;;;16.40;62.80;;;;;;4988311;28;20034;-78
2022/03/23 09:56:56;;;;;;;24.55;15.00;;;15.90;59.80;;;;;;4967714;28;20107;-78
2022/03/23 09:59:23;;;;;;;26.67;17.15;;;15.50;56.70;;;;;;4973062;28;20030;-79
2022/03/23 10:01:51;;;;;;;27.70;16.27;;;14.50;57.30;;;;;;4974537;28;20570;-79
2022/03/23 10:04:19;;;;;;;25.83;15.85;;;14.40;57.20;;;;;;5018153;28;20499;-78
2022/03/23 10:07:14;;;;;;;19.92;12.20;;;13.90;56.40;;;;;;5024940;28;20053;-78
2022/03/23 10:10:05;;;;;;;24.90;15.85;;;14.90;63.30;;;;;;5005334;28;20049;-80
2022/03/23 10:13:08;;;;;;;25.88;15.57;;;15.00;56.90;;;;;;5008670;28;20041;-79
2022/03/23 10:16:07;;;;;;;26.25;16.00;;;15.00;52.30;;;;;;5022138;28;20496;-80
2022/03/23 10:18:54;;;;;;;21.08;12.75;;;15.20;52.90;;;;;;5009327;28;20056;-82
2022/03/23 10:21:27;;;;;;;18.48;12.27;;;15.70;62.10;;;;;;5004427;28;20440;-80
2022/03/23 10:23:59;;;;;;;23.52;15.15;;;17.40;59.40;;;;;;4973355;28;20037;-81
2022/03/23 10:26:25;;;;;;;17.38;12.15;;;18.00;55.10;;;;;;5008987;28;20064;-81
2022/03/23 10:28:51;;;;;;;25.77;16.80;;;17.80;57.60;;;;;;4976600;28;20080;-81
2022/03/23 10:31:17;;;;;;;28.27;16.55;;;17.10;50.10;;;;;;4993510;28;20134;-80
2022/03/23 10:33:44;;;;;;;24.20;15.68;;;16.20;50.70;;;;;;4971659;28;20038;-80
2022/03/23 10:36:11;;;;;;;28.83;15.75;;;15.70;53.10;;;;;;4977354;28;20029;-81
2022/03/23 10:38:38;;;;;;;19.05;12.38;;;16.70;60.20;;;;;;4971250;28;20397;-83
2022/03/23 10:41:13;;;;;;;18.75;12.35;;;18.00;58.70;;;;;;4978716;28;20199;-82
2022/03/23 10:43:40;;;;;;;18.73;12.70;;;19.20;54.20;;;;;;4975343;28;20030;-81
2022/03/23 10:46:09;;;;;;;17.77;13.40;;;19.50;53.80;;;;;;4994045;28;20037;-82
2022/03/23 10:48:35;;;;;;;17.20;11.88;;;20.50;50.10;;;;;;4990508;28;20117;-81
2022/03/23 10:51:00;;;;;;;19.45;12.15;;;20.10;51.60;;;;;;4993047;28;20124;-82
2022/03/23 10:53:38;;;;;;;19.23;11.60;;;18.80;52.40;;;;;;4987860;28;20056;-82
2022/03/23 10:56:04;;;;;;;15.93;11.82;;;19.30;52.30;;;;;;4986824;28;20369;-82
2022/03/23 10:58:30;;;;;;;19.83;14.65;;;19.50;50.90;;;;;;4987213;28;20053;-83
2022/03/23 11:00:57;;;;;;;23.40;16.77;;;19.30;47.60;;;;;;4994969;28;20036;-81
2022/03/23 11:03:42;;;;;;;22.30;14.43;;;17.70;51.20;;;;;;4973798;28;20745;-81
2022/03/23 11:06:16;;;;;;;17.33;11.48;;;17.70;48.30;;;;;;4987984;28;20052;-80
2022/03/23 11:08:44;;;;;;;21.58;14.68;;;18.20;55.20;;;;;;4990800;28;20513;-82
2022/03/23 11:16:49;;;;;;;16.47;11.63;;;19.50;49.90;;;;;;4993452;28;20398;-79
2022/03/23 11:19:18;;;;;;;17.98;11.90;;;21.20;48.10;;;;;;4975828;28;20179;-79
2022/03/23 11:22:06;;;;;;;17.45;10.73;;;22.00;44.90;;;;;;5017073;28;20033;-80
2022/03/23 11:24:40;;;;;;;23.85;16.90;;;21.90;47.00;;;;;;4997311;28;20036;-78
2022/03/23 11:27:08;;;;;;;21.55;15.25;;;20.60;45.10;;;;;;4936372;28;20379;-79
2022/03/23 11:29:35;;;;;;;18.58;13.65;;;19.40;45.60;;;;;;4992283;28;20041;-77
2022/03/23 11:32:04;;;;;;;17.20;11.80;;;19.80;49.30;;;;;;4973613;28;20057;-78
2022/03/23 11:34:31;;;;;;;20.55;12.23;;;21.30;47.90;;;;;;4987781;28;20030;-78
2022/03/23 11:36:56;;;;;;;22.70;16.17;;;22.70;43.70;;;;;;4986639;28;20099;-79
2022/03/23 11:39:22;;;;;;;21.42;16.88;;;22.60;42.90;;;;;;4974724;28;20378;-76
2022/03/23 11:41:48;;;;;;;27.23;17.52;;;20.80;40.20;;;;;;4973383;28;20033;-77
2022/03/23 11:44:17;;;;;;;20.15;15.50;;;20.40;46.10;;;;;;4978660;28;20113;-76
2022/03/23 11:46:44;;;;;;;26.95;17.02;;;20.40;46.70;;;;;;4989733;28;20079;-77
2022/03/23 11:49:22;;;;;;;18.60;13.02;;;19.20;48.30;;;;;;4973155;28;20029;-78
2022/03/23 11:52:16;;;;;;;16.70;12.93;;;20.40;47.90;;;;;;5004518;28;20099;-77
2022/03/23 11:57:54;;;;;;;21.92;14.30;;;23.40;43.00;;;;;;5018492;28;20163;-79
2022/03/23 12:00:20;;;;;;;24.83;15.18;;;23.20;43.80;;;;;;4999799;28;20053;-78
2022/03/23 12:02:46;;;;;;;19.42;13.85;;;24.60;39.30;;;;;;4983061;28;20033;-77
2022/03/23 12:05:50;;;;;;;19.70;15.02;;;25.10;39.80;;;;;;4977013;28;20033;-77
2022/03/23 12:08:51;;;;;;;19.90;14.77;;;24.40;41.70;;;;;;5015594;28;20041;-78
2022/03/23 12:11:44;;;;;;;20.65;13.50;;;23.70;40.30;;;;;;5020274;28;20029;-79
2022/03/23 12:14:23;;;;;;;17.52;13.50;;;24.40;40.90;;;;;;5005526;28;20025;-78
2022/03/23 12:16:52;;;;;;;24.08;16.60;;;24.20;41.00;;;;;;5004709;28;20183;-78
2022/03/23 12:19:32;;;;;;;26.42;16.75;;;23.80;42.60;;;;;;5020360;28;20489;-77
2022/03/23 12:22:01;;;;;;;24.75;15.07;;;24.50;39.90;;;;;;4972604;28;20037;-77
2022/03/23 12:24:52;;;;;;;23.70;15.95;;;24.80;40.10;;;;;;5001011;28;20511;-78
2022/03/23 12:27:41;;;;;;;32.25;21.05;;;25.10;38.20;;;;;;5002920;28;20028;-78
2022/03/23 12:30:13;;;;;;;21.70;14.48;;;25.40;39.00;;;;;;4989021;28;20037;-78
2022/03/23 12:32:39;;;;;;;21.15;16.55;;;24.00;42.50;;;;;;4988511;28;20029;-77
2022/03/23 12:35:05;;;;;;;20.58;15.52;;;25.30;37.50;;;;;;5004183;28;20115;-78
2022/03/23 12:37:42;;;;;;;20.83;14.25;;;25.20;38.20;;;;;;4990022;28;20342;-79
2022/03/23 12:40:10;;;;;;;26.63;18.75;;;25.70;38.30;;;;;;4972692;28;20084;-80
2022/03/23 12:42:40;;;;;;;24.38;18.00;;;26.40;34.80;;;;;;4968651;28;20117;-79
2022/03/23 12:45:26;;;;;;;18.05;13.45;;;26.20;34.70;;;;;;5005543;28;20022;-78
2022/03/23 12:47:56;;;;;;;23.75;18.02;;;26.20;36.70;;;;;;4988249;28;20038;-78
2022/03/23 12:58:48;;;;;;;17.55;14.13;;;26.60;32.20;;;;;;5008425;28;20032;-82
2022/03/23 13:01:21;;;;;;;25.35;18.20;;;26.30;33.20;;;;;;4989854;28;20033;-80
2022/03/23 13:03:49;;;;;;;30.45;20.70;;;26.60;33.90;;;;;;4973985;28;20234;-79
2022/03/23 13:06:19;;;;;;;21.23;15.63;;;25.90;33.30;;;;;;4996099;28;20092;-79